createdAt,value
2023-05-12T00:00:58.004Z,45.25
2023-05-12T00:03:25.097Z,41.34
2023-05-12T00:05:52.321Z,41.25
2023-05-12T00:08:19.324Z,43.74
2023-05-12T00:10:46.034Z,43.53
2023-05-12T00:13:12.854Z,43.57
2023-05-12T00:15:39.751Z,42.00
2023-05-12T00:18:06.607Z,40.45
2023-05-12T00:20:33.430Z,40.62
2023-05-12T00:23:00.219Z,42.78
2023-05-12T00:25:26.974Z,40.64
2023-05-12T00:27:53.714Z,40.26
2023-05-12T00:30:21.448Z,39.39
2023-05-12T00:32:48.548Z,39.81
2023-05-12T00:35:16.469Z,43.52
2023-05-12T00:37:43.602Z,39.56
2023-05-12T00:40:10.991Z,40.40
2023-05-12T00:42:38.217Z,39.86
2023-05-12T00:45:06.426Z,40.58
2023-05-12T00:47:33.954Z,42.24
2023-05-12T00:50:01.030Z,42.73
2023-05-12T00:52:27.996Z,43.16
2023-05-12T00:54:55.240Z,40.55
2023-05-12T00:57:24.160Z,40.00
2023-05-12T00:59:51.704Z,39.91
2023-05-12T01:02:18.490Z,38.73
2023-05-12T01:04:45.568Z,40.07
2023-05-12T01:07:22.700Z,41.35
2023-05-12T01:09:55.653Z,39.67
2023-05-12T01:12:24.175Z,39.68
2023-05-12T01:14:53.793Z,39.89
2023-05-12T01:17:29.649Z,39.13
2023-05-12T01:20:00.368Z,39.01
2023-05-12T01:22:31.424Z,39.97
2023-05-12T01:25:04.477Z,40.84
2023-05-12T01:27:33.199Z,38.53
2023-05-12T01:30:05.727Z,39.95
2023-05-12T01:32:35.851Z,38.74
2023-05-12T01:35:04.021Z,39.54
2023-05-12T01:37:32.806Z,38.54
2023-05-12T01:40:02.663Z,39.48
2023-05-12T01:42:29.705Z,38.53
2023-05-12T01:44:57.065Z,38.16
2023-05-12T01:47:24.160Z,38.10
2023-05-12T01:49:57.709Z,38.46
2023-05-12T01:52:25.526Z,38.33
2023-05-12T01:54:52.456Z,39.26
2023-05-12T01:57:19.344Z,37.84
2023-05-12T01:59:47.062Z,38.27
2023-05-12T02:02:13.948Z,37.99
2023-05-12T02:04:40.922Z,38.58
2023-05-12T02:07:08.213Z,39.36
2023-05-12T02:09:34.969Z,38.21
2023-05-12T02:12:02.618Z,39.53
2023-05-12T02:14:29.957Z,39.74
2023-05-12T02:16:57.216Z,38.57
2023-05-12T02:19:25.808Z,41.65
2023-05-12T02:21:52.824Z,41.34
2023-05-12T02:24:21.764Z,38.89
2023-05-12T02:26:49.093Z,40.00
2023-05-12T02:29:16.077Z,37.87
2023-05-12T02:31:42.951Z,38.17
2023-05-12T02:34:16.175Z,37.64
2023-05-12T02:36:43.048Z,38.05
2023-05-12T02:39:11.616Z,37.25
2023-05-12T02:41:38.740Z,37.24
2023-05-12T02:44:05.734Z,37.50
2023-05-12T02:46:32.827Z,38.23
2023-05-12T02:48:59.652Z,37.85
2023-05-12T02:51:26.441Z,38.33
2023-05-12T02:53:53.712Z,38.37
2023-05-12T02:56:21.250Z,38.18
2023-05-12T02:58:48.273Z,37.87
2023-05-12T03:01:15.045Z,38.52
2023-05-12T03:03:42.261Z,38.22
2023-05-12T03:06:09.617Z,38.60
2023-05-12T03:08:36.752Z,37.69
2023-05-12T03:11:03.559Z,39.75
2023-05-12T03:13:30.414Z,39.25
2023-05-12T03:16:01.788Z,40.03
2023-05-12T03:18:29.953Z,39.80
2023-05-12T03:20:57.006Z,40.37
2023-05-12T03:23:24.819Z,40.19
2023-05-12T03:25:51.735Z,41.08
2023-05-12T03:28:18.670Z,41.78
2023-05-12T03:30:45.488Z,40.58
2023-05-12T03:33:12.313Z,41.64
2023-05-12T03:35:39.340Z,42.50
2023-05-12T03:38:06.547Z,43.57
2023-05-12T03:40:33.696Z,43.20
2023-05-12T03:43:00.513Z,41.09
2023-05-12T03:45:27.291Z,40.81
2023-05-12T03:47:54.476Z,40.77
2023-05-12T03:50:21.837Z,40.65
2023-05-12T03:52:49.544Z,40.82
2023-05-12T03:55:16.304Z,40.88
2023-05-12T03:57:43.320Z,38.41
2023-05-12T04:00:11.628Z,37.78
2023-05-12T04:02:44.004Z,37.66
2023-05-12T04:05:11.031Z,38.96
2023-05-12T04:07:38.404Z,38.67
2023-05-12T04:10:05.576Z,37.80
2023-05-12T04:12:33.056Z,38.31
2023-05-12T04:15:00.354Z,38.46
2023-05-12T04:17:27.270Z,38.86
2023-05-12T04:19:54.482Z,39.21
2023-05-12T04:22:22.853Z,38.74
2023-05-12T04:24:51.260Z,41.83
2023-05-12T04:27:18.839Z,42.37
2023-05-12T04:29:45.763Z,42.78
2023-05-12T04:32:12.797Z,38.92
2023-05-12T04:34:40.024Z,40.54
2023-05-12T04:37:07.096Z,40.77
2023-05-12T04:39:34.319Z,39.00
2023-05-12T04:42:02.382Z,40.03
2023-05-12T04:44:31.486Z,42.20
2023-05-12T04:46:58.268Z,39.93
2023-05-12T04:49:25.416Z,41.19
2023-05-12T04:51:52.397Z,40.08
2023-05-12T04:54:19.208Z,40.06
2023-05-12T04:56:46.268Z,40.69
2023-05-12T04:59:15.842Z,41.76
2023-05-12T05:01:44.014Z,40.82
2023-05-12T05:04:11.090Z,39.17
2023-05-12T05:06:38.432Z,41.25
2023-05-12T05:09:07.539Z,40.94
2023-05-12T05:11:34.427Z,38.03
2023-05-12T05:14:01.772Z,37.51
2023-05-12T05:16:28.820Z,36.73
2023-05-12T05:18:58.173Z,37.54
2023-05-12T05:21:25.470Z,38.65
2023-05-12T05:23:53.502Z,40.34
2023-05-12T05:26:21.658Z,40.15
2023-05-12T05:28:48.907Z,39.95
2023-05-12T05:31:17.174Z,38.75
2023-05-12T05:33:44.887Z,43.31
2023-05-12T05:36:11.942Z,39.94
2023-05-12T05:38:39.339Z,40.33
2023-05-12T05:41:06.534Z,41.90
2023-05-12T05:43:33.307Z,40.38
2023-05-12T05:46:00.160Z,41.75
2023-05-12T05:48:27.100Z,41.31
2023-05-12T05:50:54.659Z,43.62
2023-05-12T05:53:23.191Z,40.35
2023-05-12T05:55:50.501Z,39.64
2023-05-12T05:58:17.488Z,42.85
2023-05-12T06:00:45.776Z,38.93
2023-05-12T06:03:12.934Z,39.98
2023-05-12T06:05:42.337Z,42.90
2023-05-12T06:08:13.295Z,40.06
2023-05-12T06:10:41.084Z,37.58
2023-05-12T06:13:07.987Z,38.77
2023-05-12T06:15:34.869Z,40.80
2023-05-12T06:18:01.741Z,38.87
2023-05-12T06:20:28.670Z,42.52
2023-05-12T06:22:55.774Z,38.83
2023-05-12T06:25:22.735Z,39.84
2023-05-12T06:27:53.470Z,38.22
2023-05-12T06:30:20.575Z,38.43
2023-05-12T06:32:47.413Z,40.36
2023-05-12T06:35:14.210Z,40.06
2023-05-12T06:37:41.372Z,39.18
2023-05-12T06:40:08.505Z,39.41
2023-05-12T06:42:35.365Z,38.18
2023-05-12T06:45:09.956Z,38.27
2023-05-12T06:47:36.746Z,38.17
2023-05-12T06:50:03.762Z,42.19
2023-05-12T06:52:30.481Z,38.44
2023-05-12T06:54:57.259Z,40.11
2023-05-12T06:57:26.411Z,37.90
2023-05-12T06:59:53.653Z,43.31
2023-05-12T07:02:20.486Z,37.83
2023-05-12T07:04:47.202Z,36.63
2023-05-12T07:07:13.990Z,39.28
2023-05-12T07:09:42.528Z,39.22
2023-05-12T07:12:10.231Z,34.58
2023-05-12T07:14:37.316Z,35.92
2023-05-12T07:17:04.074Z,37.32
2023-05-12T07:19:30.931Z,36.46
2023-05-12T07:21:58.883Z,36.21
2023-05-12T07:24:25.782Z,36.15
2023-05-12T07:26:52.533Z,36.03
2023-05-12T07:29:19.347Z,37.71
2023-05-12T07:31:46.253Z,39.95
2023-05-12T07:34:13.105Z,37.78
2023-05-12T07:36:40.501Z,36.79
2023-05-12T07:39:07.206Z,38.81
2023-05-12T07:41:34.575Z,35.92
2023-05-12T07:44:02.445Z,35.65
2023-05-12T07:46:29.289Z,37.39
2023-05-12T07:48:56.054Z,38.51
2023-05-12T07:51:22.851Z,37.03
2023-05-12T07:53:49.632Z,33.08
2023-05-12T07:56:16.347Z,38.43
2023-05-12T07:58:43.843Z,36.45
2023-05-12T08:01:12.038Z,34.37
2023-05-12T08:03:39.472Z,35.98
2023-05-12T08:06:07.384Z,36.93
2023-05-12T08:08:34.841Z,37.84
2023-05-12T08:11:01.566Z,35.72
2023-05-12T08:13:28.358Z,34.89
2023-05-12T08:15:55.955Z,34.40
2023-05-12T08:18:22.782Z,32.72
2023-05-12T08:20:50.401Z,36.47
2023-05-12T08:23:17.650Z,36.63
2023-05-12T08:25:44.677Z,34.56
2023-05-12T08:28:13.063Z,35.33
2023-05-12T08:30:41.004Z,36.52
2023-05-12T08:33:07.875Z,33.99
2023-05-12T08:35:36.169Z,37.27
2023-05-12T08:38:03.128Z,33.77
2023-05-12T08:40:31.961Z,34.59
2023-05-12T08:43:05.662Z,34.55
2023-05-12T08:45:33.166Z,35.26
2023-05-12T08:48:00.997Z,35.32
2023-05-12T08:50:31.209Z,35.09
2023-05-12T08:52:59.037Z,36.35
2023-05-12T08:55:31.849Z,38.16
2023-05-12T08:58:02.490Z,37.91
2023-05-12T09:00:31.266Z,36.58
2023-05-12T09:03:00.151Z,34.38
2023-05-12T09:05:30.039Z,38.41
2023-05-12T09:07:57.872Z,37.56
2023-05-12T09:10:34.962Z,36.08
2023-05-12T09:13:15.963Z,36.39
2023-05-12T09:15:47.483Z,36.13
2023-05-12T09:18:14.454Z,35.70
2023-05-12T09:20:41.811Z,36.89
2023-05-12T09:23:20.364Z,34.98
2023-05-12T09:25:47.197Z,36.47
2023-05-12T09:28:14.585Z,38.25
2023-05-12T09:30:42.992Z,33.67
2023-05-12T09:33:14.221Z,34.71
2023-05-12T09:35:45.951Z,38.69
2023-05-12T09:38:14.853Z,37.10
2023-05-12T09:40:43.444Z,37.37
2023-05-12T09:43:15.144Z,33.87
2023-05-12T09:45:44.370Z,34.65
2023-05-12T09:48:14.365Z,35.24
2023-05-12T09:50:47.739Z,34.82
2023-05-12T09:53:17.956Z,37.01
2023-05-12T09:55:45.918Z,38.15
2023-05-12T09:58:16.009Z,34.83
2023-05-12T10:01:12.640Z,37.98
2023-05-12T10:03:32.248Z,35.85
2023-05-12T10:06:02.749Z,36.42
2023-05-12T10:08:53.029Z,35.66
2023-05-12T10:11:22.445Z,35.65
2023-05-12T10:13:49.224Z,35.85
2023-05-12T10:16:16.558Z,33.56
2023-05-12T10:18:46.983Z,35.88
2023-05-12T10:21:15.893Z,34.68
2023-05-12T10:23:44.547Z,34.55
2023-05-12T10:26:12.246Z,36.48
2023-05-12T10:28:38.961Z,33.87
2023-05-12T10:31:07.357Z,36.78
2023-05-12T10:33:34.157Z,35.64
2023-05-12T10:36:01.192Z,33.42
2023-05-12T10:38:36.473Z,32.22
2023-05-12T10:41:06.497Z,32.43
2023-05-12T10:43:46.789Z,31.15
2023-05-12T10:46:17.931Z,32.38
2023-05-12T10:49:07.297Z,34.76
2023-05-12T10:51:43.644Z,32.59
2023-05-12T10:54:12.781Z,35.54
2023-05-12T10:56:39.773Z,35.04
2023-05-12T10:59:14.020Z,34.03
2023-05-12T11:02:04.068Z,35.72
2023-05-12T11:04:59.103Z,34.49
2023-05-12T11:07:30.669Z,35.33
2023-05-12T11:10:05.502Z,33.61
2023-05-12T11:12:37.688Z,33.47
2023-05-12T11:15:06.380Z,33.45
2023-05-12T11:17:33.338Z,33.45
2023-05-12T11:20:01.389Z,29.38
2023-05-12T11:22:29.182Z,28.98
2023-05-12T11:24:56.540Z,31.41
2023-05-12T11:27:24.161Z,32.54
2023-05-12T11:30:04.349Z,32.17
2023-05-12T11:32:31.498Z,33.15
2023-05-12T11:35:11.802Z,32.14
2023-05-12T11:37:40.328Z,30.08
2023-05-12T11:40:18.608Z,32.38
2023-05-12T11:42:48.875Z,32.54
2023-05-12T11:45:34.061Z,30.75
2023-05-12T11:48:13.378Z,30.20
2023-05-12T11:50:47.615Z,30.63
2023-05-12T11:53:17.369Z,31.54
2023-05-12T11:55:55.819Z,31.81
2023-05-12T11:58:27.046Z,31.64
2023-05-12T12:00:55.149Z,31.59
2023-05-12T12:03:22.227Z,34.00
2023-05-12T12:06:01.334Z,33.10
2023-05-12T12:08:28.520Z,33.78
2023-05-12T12:10:55.661Z,33.24
2023-05-12T12:13:24.952Z,30.29
2023-05-12T12:15:52.857Z,32.14
2023-05-12T12:18:19.725Z,31.50
2023-05-12T12:20:47.408Z,32.91
2023-05-12T12:23:14.687Z,32.87
2023-05-12T12:25:41.429Z,35.38
2023-05-12T12:28:09.071Z,33.36
2023-05-12T12:30:35.821Z,34.09
2023-05-12T12:33:02.600Z,33.92
2023-05-12T12:35:29.927Z,34.27
2023-05-12T12:37:57.367Z,33.31
2023-05-12T12:40:24.077Z,32.47
2023-05-12T12:42:50.957Z,35.61
2023-05-12T12:45:20.271Z,35.50
2023-05-12T12:47:47.785Z,34.91
2023-05-12T12:50:14.995Z,33.00
2023-05-12T12:52:41.824Z,33.09
2023-05-12T12:55:10.030Z,33.26
2023-05-12T12:57:36.883Z,33.89
2023-05-12T13:00:05.615Z,36.37
2023-05-12T13:02:33.608Z,35.75
2023-05-12T13:05:06.091Z,36.58
2023-05-12T13:07:33.510Z,36.19
2023-05-12T13:10:00.515Z,36.15
2023-05-12T13:12:29.377Z,34.44
2023-05-12T13:14:56.144Z,34.68
2023-05-12T13:17:23.417Z,33.91
2023-05-12T13:19:50.198Z,34.80
2023-05-12T13:22:16.872Z,36.15
2023-05-12T13:24:44.443Z,33.03
2023-05-12T13:27:11.125Z,35.75
2023-05-12T13:29:38.008Z,35.17
2023-05-12T13:32:04.960Z,37.08
2023-05-12T13:34:31.791Z,33.57
2023-05-12T13:36:59.443Z,35.58
2023-05-12T13:39:26.231Z,37.19
2023-05-12T13:41:53.100Z,34.82
2023-05-12T13:44:19.855Z,36.65
2023-05-12T13:46:47.033Z,36.83
2023-05-12T13:49:14.713Z,36.05
2023-05-12T13:51:41.513Z,35.22
2023-05-12T13:54:08.308Z,34.43
2023-05-12T13:56:35.018Z,34.68
2023-05-12T13:59:01.976Z,36.50
2023-05-12T14:01:29.506Z,33.29
2023-05-12T14:03:56.297Z,33.69
2023-05-12T14:06:23.268Z,34.24
2023-05-12T14:08:50.046Z,38.22
2023-05-12T14:11:17.181Z,40.56
2023-05-12T14:13:44.779Z,39.91
2023-05-12T14:16:15.013Z,41.96
2023-05-12T14:18:43.470Z,38.38
2023-05-12T14:21:10.880Z,38.14
2023-05-12T14:23:37.835Z,37.40
2023-05-12T14:26:05.077Z,42.03
2023-05-12T14:28:31.928Z,39.97
2023-05-12T14:30:59.545Z,37.75
2023-05-12T14:33:27.202Z,40.33
2023-05-12T14:36:05.818Z,39.35
2023-05-12T14:38:33.756Z,36.67
2023-05-12T14:41:00.477Z,39.77
2023-05-12T14:43:27.231Z,39.03
2023-05-12T14:45:57.737Z,38.23
2023-05-12T14:48:27.684Z,40.33
2023-05-12T14:50:55.752Z,39.76
2023-05-12T14:53:23.443Z,38.64
2023-05-12T14:55:51.033Z,40.06
2023-05-12T14:58:18.778Z,39.48
2023-05-12T15:00:45.688Z,41.97
2023-05-12T15:03:13.871Z,42.41
2023-05-12T15:06:01.814Z,40.22
2023-05-12T15:08:27.692Z,41.87
2023-05-12T15:10:54.436Z,39.27
2023-05-12T15:13:22.771Z,40.91
2023-05-12T15:15:50.982Z,39.60
2023-05-12T15:18:19.713Z,40.04
2023-05-12T15:20:46.800Z,38.98
2023-05-12T15:23:14.171Z,39.32
2023-05-12T15:25:41.771Z,40.18
2023-05-12T15:28:08.521Z,39.40
2023-05-12T15:30:36.139Z,37.83
2023-05-12T15:33:06.186Z,41.29
2023-05-12T15:35:33.870Z,38.74
2023-05-12T15:38:00.729Z,39.76
2023-05-12T15:40:27.470Z,40.02
2023-05-12T15:42:54.412Z,41.08
2023-05-12T15:45:21.294Z,40.54
2023-05-12T15:47:48.234Z,37.12
2023-05-12T15:50:19.871Z,40.08
2023-05-12T15:52:47.445Z,41.14
2023-05-12T15:55:14.580Z,40.56
2023-05-12T15:57:41.401Z,40.08
2023-05-12T16:00:08.740Z,40.92
2023-05-12T16:02:41.374Z,38.72
2023-05-12T16:05:09.779Z,41.15
2023-05-12T16:07:36.675Z,40.28
2023-05-12T16:10:03.803Z,41.19
2023-05-12T16:12:31.247Z,39.17
2023-05-12T16:14:58.015Z,42.60
2023-05-12T16:17:24.843Z,41.56
2023-05-12T16:19:53.547Z,40.88
2023-05-12T16:22:20.364Z,41.98
2023-05-12T16:24:47.651Z,40.61
2023-05-12T16:27:15.316Z,40.82
2023-05-12T16:29:46.095Z,41.07
2023-05-12T16:32:13.013Z,41.64
2023-05-12T16:34:39.929Z,42.09
2023-05-12T16:37:06.678Z,40.18
2023-05-12T16:39:35.766Z,40.96
2023-05-12T16:42:03.355Z,41.05
2023-05-12T16:44:30.253Z,39.98
2023-05-12T16:46:57.132Z,41.53
2023-05-12T16:49:23.883Z,43.56
2023-05-12T16:51:50.637Z,41.77
2023-05-12T16:54:18.643Z,43.35
2023-05-12T16:56:45.485Z,44.55
2023-05-12T16:59:12.167Z,43.57
2023-05-12T17:01:39.645Z,43.14
2023-05-12T17:04:07.960Z,42.69
2023-05-12T17:06:35.081Z,47.10
2023-05-12T17:09:02.109Z,47.80
2023-05-12T17:11:28.882Z,44.69
2023-05-12T17:13:55.896Z,47.01
2023-05-12T17:16:22.928Z,46.12
2023-05-12T17:21:19.598Z,45.66
2023-05-12T17:23:47.273Z,47.15
2023-05-12T17:26:14.584Z,45.95
2023-05-12T17:28:41.561Z,45.69
2023-05-12T17:31:08.651Z,44.95
2023-05-12T17:33:35.669Z,42.76
2023-05-12T17:36:11.698Z,44.52
2023-05-12T17:38:40.581Z,42.63
2023-05-12T17:41:07.292Z,47.31
2023-05-12T17:43:34.330Z,46.66
2023-05-12T17:46:03.469Z,42.83
2023-05-12T17:48:36.315Z,45.59
2023-05-12T17:51:06.689Z,47.50
2023-05-12T17:53:36.305Z,48.07
2023-05-12T17:56:06.504Z,46.11
2023-05-12T17:58:33.739Z,47.11
2023-05-12T18:01:00.780Z,47.57
2023-05-12T18:03:27.575Z,45.68
2023-05-12T18:05:54.449Z,45.42
2023-05-12T18:08:21.851Z,45.86
2023-05-12T18:10:48.948Z,45.11
2023-05-12T18:13:16.085Z,44.50
2023-05-12T18:15:43.053Z,45.73
2023-05-12T18:18:11.107Z,44.82
2023-05-12T18:20:38.087Z,45.32
2023-05-12T18:23:04.967Z,46.23
2023-05-12T18:25:32.270Z,45.33
2023-05-12T18:27:59.082Z,46.61
2023-05-12T18:30:25.974Z,50.57
2023-05-12T18:32:52.953Z,48.67
2023-05-12T18:35:20.040Z,48.79
2023-05-12T18:37:47.524Z,47.20
2023-05-12T18:40:14.443Z,45.42
2023-05-12T18:42:41.283Z,45.19
2023-05-12T18:45:08.434Z,43.10
2023-05-12T18:47:35.221Z,45.43
2023-05-12T18:50:02.821Z,50.22
2023-05-12T18:52:29.499Z,50.48
2023-05-12T18:54:56.376Z,48.86
2023-05-12T18:57:23.162Z,49.37
2023-05-12T18:59:50.251Z,48.19
2023-05-12T19:02:17.744Z,47.37
2023-05-12T19:04:44.612Z,44.91
2023-05-12T19:07:15.300Z,46.52
2023-05-12T19:09:43.005Z,47.35
2023-05-12T19:12:11.847Z,45.19
2023-05-12T19:14:39.889Z,46.17
2023-05-12T19:17:07.684Z,47.77
2023-05-12T19:19:35.026Z,46.49
2023-05-12T19:22:04.103Z,46.49
2023-05-12T19:24:30.970Z,46.03
2023-05-12T19:26:58.022Z,45.83
2023-05-12T19:29:24.811Z,47.56
2023-05-12T19:31:53.199Z,45.64
2023-05-12T19:34:20.750Z,47.63
2023-05-12T19:36:48.041Z,48.15
2023-05-12T19:39:14.821Z,45.95
2023-05-12T19:41:41.682Z,47.44
2023-05-12T19:44:08.420Z,50.49
2023-05-12T19:46:35.399Z,47.55
2023-05-12T19:49:02.443Z,47.52
2023-05-12T19:51:29.364Z,48.09
2023-05-12T19:53:56.119Z,46.21
2023-05-12T19:56:22.927Z,47.42
2023-05-12T19:58:49.805Z,51.58
2023-05-12T20:01:16.947Z,46.68
2023-05-12T20:03:43.741Z,48.19
2023-05-12T20:06:10.862Z,46.11
2023-05-12T20:08:38.094Z,47.68
2023-05-12T20:11:04.891Z,46.27
2023-05-12T20:13:32.247Z,44.35
2023-05-12T20:15:59.206Z,43.86
2023-05-12T20:18:26.012Z,45.92
2023-05-12T20:20:52.767Z,45.31
2023-05-12T20:23:19.768Z,45.21
2023-05-12T20:25:47.202Z,47.56
2023-05-12T20:28:14.074Z,46.24
2023-05-12T20:30:41.049Z,45.49
2023-05-12T20:33:07.894Z,44.10
2023-05-12T20:35:35.148Z,45.92
2023-05-12T20:38:02.444Z,46.65
2023-05-12T20:40:29.574Z,45.76
2023-05-12T20:42:56.257Z,47.58
2023-05-12T20:45:23.194Z,45.46
2023-05-12T20:47:50.368Z,45.68
2023-05-12T20:50:17.921Z,45.34
2023-05-12T20:52:47.499Z,45.56
2023-05-12T20:55:14.257Z,46.29
2023-05-12T20:57:41.382Z,46.98
2023-05-12T21:00:13.802Z,45.03
2023-05-12T21:02:40.856Z,44.18
2023-05-12T21:05:07.853Z,47.08
2023-05-12T21:07:35.112Z,44.78
2023-05-12T21:10:04.010Z,46.80
2023-05-12T21:12:31.617Z,43.88
2023-05-12T21:14:58.692Z,44.49
2023-05-12T21:17:25.570Z,45.09
2023-05-12T21:19:52.567Z,47.65
2023-05-12T21:22:19.278Z,46.09
2023-05-12T21:24:45.951Z,44.64
2023-05-12T21:27:12.839Z,46.48
2023-05-12T21:29:40.307Z,47.79
2023-05-12T21:32:07.697Z,45.05
2023-05-12T21:34:36.064Z,45.72
2023-05-12T21:37:03.288Z,47.74
2023-05-12T21:39:30.034Z,43.84
2023-05-12T21:41:56.794Z,44.76
2023-05-12T21:44:23.518Z,44.86
2023-05-12T21:46:50.578Z,44.17
2023-05-12T21:49:17.285Z,45.61
2023-05-12T21:51:44.410Z,43.67
2023-05-12T21:54:12.300Z,42.58
2023-05-12T21:56:39.027Z,42.15
2023-05-12T21:59:05.871Z,42.19
2023-05-12T22:01:33.016Z,42.98
2023-05-12T22:04:00.102Z,43.55
2023-05-12T22:06:27.069Z,49.73
2023-05-12T22:08:54.258Z,46.11
2023-05-12T22:11:21.897Z,46.58
2023-05-12T22:13:49.704Z,47.81
2023-05-12T22:16:18.590Z,44.86
2023-05-12T22:18:47.094Z,45.67
2023-05-12T22:21:13.806Z,44.30
2023-05-12T22:23:42.189Z,45.13
2023-05-12T22:26:09.559Z,45.23
2023-05-12T22:28:36.586Z,43.21
2023-05-12T22:31:03.912Z,43.71
2023-05-12T22:33:31.620Z,42.29
2023-05-12T22:36:00.167Z,42.86
2023-05-12T22:38:27.843Z,43.99
2023-05-12T22:40:54.692Z,42.35
2023-05-12T22:43:21.593Z,44.67
2023-05-12T22:45:55.941Z,45.20
2023-05-12T22:48:23.117Z,43.34
2023-05-12T22:50:54.107Z,42.59
2023-05-12T22:53:21.203Z,43.34
2023-05-12T22:55:48.073Z,44.10
2023-05-12T22:58:15.122Z,43.66
2023-05-12T23:00:41.891Z,42.66
2023-05-12T23:03:08.915Z,43.93
2023-05-12T23:05:36.084Z,43.55
2023-05-12T23:08:06.025Z,45.04
2023-05-12T23:10:32.689Z,43.61
2023-05-12T23:12:59.510Z,44.89
2023-05-12T23:15:26.260Z,48.19
2023-05-12T23:17:53.010Z,43.89
2023-05-12T23:20:20.361Z,42.41
2023-05-12T23:22:47.227Z,42.42
2023-05-12T23:25:14.208Z,42.28
2023-05-12T23:27:41.019Z,42.76
2023-05-12T23:30:08.537Z,42.74
2023-05-12T23:32:35.493Z,42.02
2023-05-12T23:35:02.354Z,42.93
2023-05-12T23:37:29.098Z,41.83
2023-05-12T23:39:55.868Z,44.16
2023-05-12T23:42:22.687Z,44.03
2023-05-12T23:44:49.425Z,43.64
2023-05-12T23:47:16.143Z,44.45
2023-05-12T23:49:42.833Z,41.19
2023-05-12T23:52:09.542Z,40.96
2023-05-12T23:54:36.557Z,45.01
2023-05-12T23:57:03.330Z,45.61
2023-05-12T23:59:30.913Z,40.93
